createdAt,value
2017-03-01T00:00:04.048Z,6.06
2017-03-01T00:00:25.851Z,6.06
2017-03-01T00:00:52.329Z,6.07
2017-03-01T00:01:14.031Z,6.04
2017-03-01T00:01:40.611Z,6.03
2017-03-01T00:02:02.305Z,6.03
2017-03-01T00:02:24.032Z,6.05
2017-03-01T00:02:45.746Z,6.07
2017-03-01T00:03:07.564Z,6.08
2017-03-01T00:03:29.266Z,6.07
2017-03-01T00:03:55.742Z,6.08
2017-03-01T00:04:17.432Z,6.06
2017-03-01T00:04:53.459Z,6.10
2017-03-01T00:05:20.697Z,6.10
2017-03-01T00:05:42.406Z,6.09
2017-03-01T00:06:04.111Z,6.10
2017-03-01T00:06:25.915Z,6.11
2017-03-01T00:06:47.614Z,6.12
2017-03-01T00:07:09.308Z,6.12
2017-03-01T00:07:40.639Z,6.12
2017-03-01T00:08:02.329Z,6.14
2017-03-01T00:08:33.613Z,6.18
2017-03-01T00:08:55.395Z,6.17
2017-03-01T00:09:26.653Z,6.15
2017-03-01T00:09:48.360Z,6.14
2017-03-01T00:10:10.169Z,6.16
2017-03-01T00:10:31.870Z,6.17
2017-03-01T00:10:53.565Z,6.17
2017-03-01T00:11:56.644Z,6.18
2017-03-01T00:12:18.350Z,6.19
2017-03-01T00:12:44.911Z,6.18
2017-03-01T00:13:06.652Z,6.18
2017-03-01T00:13:37.910Z,6.19
2017-03-01T00:13:59.690Z,6.21
2017-03-01T00:14:21.403Z,6.19
2017-03-01T00:14:47.874Z,6.19
2017-03-01T00:15:09.660Z,6.18
2017-03-01T00:15:31.366Z,6.17
2017-03-01T00:16:02.615Z,6.16
2017-03-01T00:16:24.436Z,6.21
2017-03-01T00:16:46.150Z,6.21
2017-03-01T00:17:17.402Z,6.22
2017-03-01T00:17:39.202Z,6.20
2017-03-01T00:18:41.710Z,6.20
2017-03-01T00:19:03.485Z,6.20
2017-03-01T00:19:25.177Z,6.19
2017-03-01T00:19:46.883Z,6.19
2017-03-01T00:20:08.573Z,6.21
2017-03-01T00:20:39.993Z,6.22
2017-03-01T00:21:01.689Z,6.20
2017-03-01T00:21:23.388Z,6.19
2017-03-01T00:21:59.431Z,6.21
2017-03-01T00:22:31.350Z,6.17
2017-03-01T00:22:53.070Z,6.16
2017-03-01T00:24:00.345Z,6.19
2017-03-01T00:24:22.051Z,6.19
2017-03-01T00:24:43.756Z,6.19
2017-03-01T00:25:05.555Z,6.19
2017-03-01T00:25:27.257Z,6.19
2017-03-01T00:25:48.966Z,6.17
2017-03-01T00:26:10.667Z,6.20
2017-03-01T00:26:32.464Z,6.20
2017-03-01T00:26:54.172Z,6.19
2017-03-01T00:27:20.652Z,6.20
2017-03-01T00:27:42.356Z,6.18
2017-03-01T00:30:38.724Z,6.20
2017-03-01T00:31:32.163Z,6.19
2017-03-01T00:32:05.876Z,6.20
2017-03-01T00:34:11.929Z,6.21
2017-03-01T00:34:33.683Z,6.21
2017-03-01T00:34:55.694Z,6.22
2017-03-01T00:35:54.328Z,6.19
2017-03-01T00:37:59.062Z,6.20
2017-03-01T00:38:21.287Z,6.22
2017-03-01T00:38:51.180Z,6.19
2017-03-01T00:39:18.116Z,6.19
2017-03-01T00:39:44.382Z,6.16
2017-03-01T00:40:18.759Z,6.22
2017-03-01T00:41:57.905Z,6.22
2017-03-01T00:42:25.213Z,6.21
2017-03-01T00:43:53.030Z,6.26
2017-03-01T00:45:26.134Z,6.29
2017-03-01T00:45:55.356Z,6.30
2017-03-01T00:48:16.320Z,6.25
2017-03-01T00:48:38.115Z,6.26
2017-03-01T00:49:31.151Z,6.21
2017-03-01T00:49:52.944Z,6.21
2017-03-01T00:50:19.457Z,6.18
2017-03-01T00:50:41.235Z,6.19
2017-03-01T00:51:03.005Z,6.21
2017-03-01T00:51:30.013Z,6.22
2017-03-01T00:51:52.883Z,6.26
2017-03-01T00:52:21.866Z,6.24
2017-03-01T00:52:54.093Z,6.17
2017-03-01T00:53:18.363Z,6.18
2017-03-01T00:53:49.436Z,6.16
2017-03-01T00:54:11.174Z,6.17
2017-03-01T00:54:33.049Z,6.14
2017-03-01T00:54:59.542Z,6.12
2017-03-01T00:55:24.269Z,6.12
2017-03-01T00:56:25.728Z,6.18
2017-03-01T00:56:50.868Z,6.18
2017-03-01T00:57:19.958Z,6.13
2017-03-01T00:57:46.726Z,6.12
2017-03-01T00:59:46.806Z,6.08
2017-03-01T01:00:08.552Z,6.03
2017-03-01T01:00:35.054Z,6.06
2017-03-01T01:01:36.115Z,6.06
2017-03-01T01:02:02.758Z,6.04
2017-03-01T01:03:05.294Z,6.05
2017-03-01T01:03:27.030Z,6.04
2017-03-01T01:04:25.337Z,6.06
2017-03-01T01:04:47.120Z,6.04
2017-03-01T01:05:35.693Z,6.03
2017-03-01T01:06:05.318Z,6.03
2017-03-01T01:06:36.593Z,6.08
2017-03-01T01:07:03.764Z,6.09
2017-03-01T01:07:55.400Z,6.09
2017-03-01T01:08:46.256Z,6.05
2017-03-01T01:09:40.348Z,6.03
2017-03-01T01:10:02.328Z,6.06
2017-03-01T01:10:28.870Z,6.04
2017-03-01T01:10:50.685Z,6.07
2017-03-01T01:11:17.479Z,6.09
2017-03-01T01:12:15.600Z,6.08
2017-03-01T01:12:47.971Z,6.06
2017-03-01T01:13:43.948Z,6.02
2017-03-01T01:14:11.388Z,6.02
2017-03-01T01:14:40.748Z,6.04
2017-03-01T01:15:12.042Z,6.03
2017-03-01T01:16:53.580Z,6.08
2017-03-01T01:17:25.432Z,6.00
2017-03-01T01:17:52.024Z,6.00
2017-03-01T01:18:13.869Z,6.00
2017-03-01T01:18:46.816Z,6.00
2017-03-01T01:19:18.366Z,6.01
2017-03-01T01:19:43.827Z,5.89
2017-03-01T01:20:40.297Z,5.97
2017-03-01T01:21:46.858Z,5.90
2017-03-01T01:22:15.927Z,5.89
2017-03-01T01:22:42.803Z,5.87
2017-03-01T01:23:33.475Z,5.84
2017-03-01T01:24:27.859Z,5.83
2017-03-01T01:24:54.435Z,5.86
2017-03-01T01:26:42.944Z,5.79
2017-03-01T01:27:04.689Z,5.72
2017-03-01T01:27:57.867Z,5.70
2017-03-01T01:28:19.673Z,5.67
2017-03-01T01:28:51.798Z,5.65
2017-03-01T01:29:48.272Z,5.78
2017-03-01T01:30:24.291Z,5.72
2017-03-01T01:30:50.829Z,5.74
2017-03-01T01:32:18.507Z,5.65
2017-03-01T01:32:52.797Z,5.65
2017-03-01T01:33:17.245Z,5.66
2017-03-01T01:33:46.096Z,5.71
2017-03-01T01:34:08.045Z,5.76
2017-03-01T01:34:35.809Z,5.72
2017-03-01T01:35:02.609Z,5.72
2017-03-01T01:35:30.077Z,5.76
2017-03-01T01:35:59.405Z,5.75
2017-03-01T01:37:21.696Z,5.75
2017-03-01T01:38:20.493Z,5.79
2017-03-01T01:39:48.451Z,5.70
2017-03-01T01:40:10.156Z,5.70
2017-03-01T01:40:31.856Z,5.71
2017-03-01T01:40:53.560Z,5.71
2017-03-01T01:41:15.273Z,5.71
2017-03-01T01:41:36.966Z,5.75
2017-03-01T01:41:58.665Z,5.77
2017-03-01T01:42:20.371Z,5.74
2017-03-01T01:42:46.874Z,5.72
2017-03-01T01:43:08.567Z,5.72
2017-03-01T01:43:30.327Z,5.74
2017-03-01T01:43:52.099Z,5.77
2017-03-01T01:44:13.881Z,5.75
2017-03-01T01:44:40.506Z,5.73
2017-03-01T01:45:02.235Z,5.75
2017-03-01T01:45:55.235Z,5.77
2017-03-01T01:46:21.709Z,5.77
2017-03-01T01:46:43.415Z,5.74
2017-03-01T01:47:09.908Z,5.74
2017-03-01T01:47:31.642Z,5.71
2017-03-01T01:47:58.119Z,5.71
2017-03-01T01:48:19.838Z,5.70
2017-03-01T01:48:41.574Z,5.72
2017-03-01T01:49:08.077Z,5.73
2017-03-01T01:49:29.840Z,5.72
2017-03-01T01:49:56.326Z,5.70
2017-03-01T01:51:08.397Z,5.65
2017-03-01T01:51:30.137Z,5.65
2017-03-01T01:51:56.620Z,5.64
2017-03-01T01:52:18.320Z,5.68
2017-03-01T01:52:44.790Z,5.65
2017-03-01T01:53:06.498Z,5.68
2017-03-01T01:53:28.232Z,5.67
2017-03-01T01:53:54.714Z,5.65
2017-03-01T01:54:16.442Z,5.61
2017-03-01T01:54:42.925Z,5.62
2017-03-01T01:55:04.632Z,5.59
2017-03-01T01:55:35.877Z,5.56
2017-03-01T01:55:57.572Z,5.54
2017-03-01T01:56:19.269Z,5.52
2017-03-01T01:56:40.973Z,5.52
2017-03-01T01:57:02.679Z,5.50
2017-03-01T01:57:24.410Z,5.49
2017-03-01T01:57:47.286Z,5.51
2017-03-01T01:58:09.053Z,5.50
2017-03-01T01:58:40.315Z,5.48
2017-03-01T01:59:02.045Z,5.49
2017-03-01T01:59:28.532Z,5.56
2017-03-01T01:59:50.264Z,5.58
2017-03-01T02:00:12.024Z,5.56
2017-03-01T02:00:33.722Z,5.54
2017-03-01T02:00:55.444Z,5.50
2017-03-01T02:01:17.189Z,5.52
2017-03-01T02:01:38.915Z,5.53
2017-03-01T02:02:00.643Z,5.55
2017-03-01T02:02:22.392Z,5.53
2017-03-01T02:02:53.638Z,5.50
2017-03-01T02:03:15.349Z,5.49
2017-03-01T02:03:37.108Z,5.50
2017-03-01T02:03:58.919Z,5.56
2017-03-01T02:04:20.639Z,5.60
2017-03-01T02:04:42.395Z,5.61
2017-03-01T02:05:04.126Z,5.65
2017-03-01T02:05:25.869Z,5.60
2017-03-01T02:05:47.593Z,5.58
2017-03-01T02:06:10.310Z,5.61
2017-03-01T02:06:32.060Z,5.57
2017-03-01T02:07:03.306Z,5.51
2017-03-01T02:07:25.015Z,5.50
2017-03-01T02:07:51.533Z,5.53
2017-03-01T02:08:15.864Z,5.55
2017-03-01T02:08:42.401Z,5.52
2017-03-01T02:09:04.081Z,5.55
2017-03-01T02:09:30.575Z,5.53
2017-03-01T02:09:52.269Z,5.47
2017-03-01T02:10:18.736Z,5.48
2017-03-01T02:10:40.448Z,5.45
2017-03-01T02:11:06.938Z,5.49
2017-03-01T02:11:28.676Z,5.52
2017-03-01T02:11:55.167Z,5.49
2017-03-01T02:12:16.939Z,5.49
2017-03-01T02:12:38.720Z,5.47
2017-03-01T02:13:14.753Z,5.46
2017-03-01T02:13:41.812Z,5.46
2017-03-01T02:14:03.567Z,5.45
2017-03-01T02:14:39.611Z,5.47
2017-03-01T02:15:06.656Z,5.50
2017-03-01T02:15:28.416Z,5.48
2017-03-01T02:15:50.140Z,5.49
2017-03-01T02:16:16.635Z,5.52
2017-03-01T02:16:38.368Z,5.48
2017-03-01T02:17:04.861Z,5.45
2017-03-01T02:17:26.566Z,5.47
2017-03-01T02:17:50.728Z,5.52
2017-03-01T02:18:12.445Z,5.54
2017-03-01T02:18:43.775Z,5.57
2017-03-01T02:19:05.486Z,5.59
2017-03-01T02:19:36.733Z,5.60
2017-03-01T02:19:58.442Z,5.53
2017-03-01T02:20:29.689Z,5.47
2017-03-01T02:20:51.400Z,5.50
2017-03-01T02:21:22.646Z,5.50
2017-03-01T02:21:44.354Z,5.49
2017-03-01T02:22:15.613Z,5.48
2017-03-01T02:22:37.311Z,5.43
2017-03-01T02:23:03.792Z,5.40
2017-03-01T02:23:25.483Z,5.42
2017-03-01T02:23:51.955Z,5.40
2017-03-01T02:24:13.652Z,5.41
2017-03-01T02:24:40.138Z,5.40
2017-03-01T02:25:01.842Z,5.42
2017-03-01T02:25:28.328Z,5.45
2017-03-01T02:25:50.046Z,5.44
2017-03-01T02:26:11.769Z,5.46
2017-03-01T02:26:43.033Z,5.48
2017-03-01T02:27:04.752Z,5.47
2017-03-01T02:27:36.032Z,5.47
2017-03-01T02:27:57.780Z,5.51
2017-03-01T02:28:29.038Z,5.49
2017-03-01T02:28:50.746Z,5.47
2017-03-01T02:29:21.984Z,5.50
2017-03-01T02:29:43.707Z,5.49
2017-03-01T02:30:19.737Z,5.46
2017-03-01T02:30:46.816Z,5.47
2017-03-01T02:31:08.515Z,5.46
2017-03-01T02:31:30.214Z,5.47
2017-03-01T02:31:56.703Z,5.49
2017-03-01T02:32:18.408Z,5.51
2017-03-01T02:32:54.434Z,5.54
2017-03-01T02:33:21.456Z,5.53
2017-03-01T02:33:43.149Z,5.53
2017-03-01T02:34:09.623Z,5.49
2017-03-01T02:34:31.334Z,5.48
2017-03-01T02:34:57.845Z,5.50
2017-03-01T02:35:19.563Z,5.52
2017-03-01T02:35:46.320Z,5.58
2017-03-01T02:36:08.032Z,5.58
2017-03-01T02:36:29.725Z,5.60
2017-03-01T02:36:56.208Z,5.55
2017-03-01T02:37:17.910Z,5.53
2017-03-01T02:37:49.188Z,5.53
2017-03-01T02:38:10.880Z,5.53
2017-03-01T02:38:46.909Z,5.53
2017-03-01T02:39:13.934Z,5.59
2017-03-01T02:39:38.049Z,5.62
2017-03-01T02:40:09.311Z,5.58
2017-03-01T02:41:12.024Z,5.56
2017-03-01T02:41:33.753Z,5.54
2017-03-01T02:41:55.484Z,5.50
2017-03-01T02:42:22.000Z,5.55
2017-03-01T02:42:43.690Z,5.53
2017-03-01T02:43:14.957Z,5.56
2017-03-01T02:43:36.711Z,5.59
2017-03-01T02:44:07.969Z,5.56
2017-03-01T02:44:29.696Z,5.57
2017-03-01T02:45:00.966Z,5.54
2017-03-01T02:45:22.737Z,5.54
2017-03-01T02:45:54.010Z,5.60
2017-03-01T02:46:15.713Z,5.61
2017-03-01T02:46:51.765Z,5.57
2017-03-01T02:47:18.784Z,5.57
2017-03-01T02:47:40.495Z,5.54
2017-03-01T02:48:02.195Z,5.52
2017-03-01T02:48:28.673Z,5.50
2017-03-01T02:48:50.412Z,5.49
2017-03-01T02:49:21.671Z,5.48
2017-03-01T02:49:43.382Z,5.48
2017-03-01T02:50:50.681Z,5.49
2017-03-01T02:51:12.633Z,5.52
2017-03-01T02:52:05.641Z,5.52
2017-03-01T02:52:32.158Z,5.47
2017-03-01T02:52:56.324Z,5.47
2017-03-01T02:53:22.814Z,5.44
2017-03-01T02:53:44.570Z,5.43
2017-03-01T02:54:51.873Z,5.47
2017-03-01T02:55:13.731Z,5.49
2017-03-01T02:55:35.441Z,5.51
2017-03-01T02:55:57.193Z,5.51
2017-03-01T02:56:19.046Z,5.48
2017-03-01T02:57:26.351Z,5.52
2017-03-01T02:57:50.832Z,5.53
2017-03-01T02:58:26.865Z,5.50
2017-03-01T02:58:49.156Z,5.48
2017-03-01T02:59:10.995Z,5.49
2017-03-01T02:59:47.038Z,5.52
2017-03-01T03:00:14.029Z,5.55
2017-03-01T03:00:35.900Z,5.52
2017-03-01T03:01:11.957Z,5.53
2017-03-01T03:01:39.030Z,5.50
2017-03-01T03:02:01.019Z,5.54
2017-03-01T03:02:24.681Z,5.52
2017-03-01T03:02:46.431Z,5.53
2017-03-01T03:03:54.064Z,5.55
2017-03-01T03:04:15.868Z,5.54
2017-03-01T03:04:51.904Z,5.54
2017-03-01T03:05:16.436Z,5.51
2017-03-01T03:05:38.320Z,5.49
2017-03-01T03:06:12.569Z,5.51
2017-03-01T03:06:43.670Z,5.50
2017-03-01T03:07:05.396Z,5.54
2017-03-01T03:07:27.252Z,5.52
2017-03-01T03:07:54.755Z,5.55
2017-03-01T03:08:16.598Z,5.57
2017-03-01T03:09:19.181Z,5.54
2017-03-01T03:09:40.904Z,5.51
2017-03-01T03:10:02.695Z,5.48
2017-03-01T03:10:26.622Z,5.47
2017-03-01T03:10:48.372Z,5.46
2017-03-01T03:11:10.243Z,5.49
2017-03-01T03:11:32.097Z,5.47
2017-03-01T03:11:53.856Z,5.49
2017-03-01T03:12:15.642Z,5.51
2017-03-01T03:12:37.406Z,5.50
2017-03-01T03:13:49.469Z,5.48
2017-03-01T03:14:11.293Z,5.46
2017-03-01T03:14:37.795Z,5.46
2017-03-01T03:14:59.514Z,5.51
2017-03-01T03:16:02.070Z,5.46
2017-03-01T03:16:28.585Z,5.46
2017-03-01T03:16:51.393Z,5.46
2017-03-01T03:17:27.425Z,5.53
2017-03-01T03:17:54.659Z,5.56
2017-03-01T03:18:30.698Z,5.55
2017-03-01T03:18:57.805Z,5.54
2017-03-01T03:19:19.549Z,5.55
2017-03-01T03:19:41.286Z,5.52
2017-03-01T03:20:07.967Z,5.51
2017-03-01T03:20:29.715Z,5.51
2017-03-01T03:20:56.285Z,5.51
2017-03-01T03:21:27.549Z,5.48
2017-03-01T03:21:49.301Z,5.46
2017-03-01T03:22:15.821Z,5.46
2017-03-01T03:22:37.578Z,5.49
2017-03-01T03:23:04.181Z,5.55
2017-03-01T03:23:25.923Z,5.57
2017-03-01T03:23:52.429Z,5.55
2017-03-01T03:24:18.909Z,5.54
2017-03-01T03:24:40.649Z,5.52
2017-03-01T03:25:02.482Z,5.55
2017-03-01T03:25:33.750Z,5.56
2017-03-01T03:25:55.484Z,5.56
2017-03-01T03:26:17.254Z,5.54
2017-03-01T03:26:48.641Z,5.52
2017-03-01T03:27:10.372Z,5.55
2017-03-01T03:27:32.149Z,5.56
2017-03-01T03:27:53.895Z,5.57
2017-03-01T03:28:15.652Z,5.53
2017-03-01T03:28:37.390Z,5.55
2017-03-01T03:28:59.200Z,5.53
2017-03-01T03:29:20.944Z,5.50
2017-03-01T03:29:52.216Z,5.49
2017-03-01T03:30:14.077Z,5.53
2017-03-01T03:30:40.605Z,5.55
2017-03-01T03:31:02.438Z,5.54
2017-03-01T03:31:28.938Z,5.52
2017-03-01T03:31:50.666Z,5.53
2017-03-01T03:32:17.318Z,5.54
2017-03-01T03:33:24.620Z,5.51
2017-03-01T03:33:46.483Z,5.52
2017-03-01T03:34:15.902Z,5.53
2017-03-01T03:34:37.705Z,5.51
2017-03-01T03:35:08.967Z,5.55
2017-03-01T03:35:30.730Z,5.58
2017-03-01T03:35:52.451Z,5.56
2017-03-01T03:36:18.950Z,5.57
2017-03-01T03:36:40.675Z,5.57
2017-03-01T03:37:11.935Z,5.59
2017-03-01T03:37:39.289Z,5.59
2017-03-01T03:38:05.798Z,5.57
2017-03-01T03:38:27.552Z,5.56
2017-03-01T03:38:58.827Z,5.57
2017-03-01T03:39:25.312Z,5.53
2017-03-01T03:39:51.790Z,5.48
2017-03-01T03:40:13.550Z,5.49
2017-03-01T03:40:44.847Z,5.49
2017-03-01T03:41:06.691Z,5.51
2017-03-01T03:41:37.985Z,5.50
2017-03-01T03:41:59.871Z,5.50
2017-03-01T03:42:26.389Z,5.48
2017-03-01T03:42:48.221Z,5.49
2017-03-01T03:43:19.475Z,5.52
2017-03-01T03:43:41.222Z,5.58
2017-03-01T03:44:12.589Z,5.58
2017-03-01T03:44:34.320Z,5.53
2017-03-01T03:45:05.569Z,5.57
2017-03-01T03:45:28.332Z,5.61
2017-03-01T03:45:54.819Z,5.54
2017-03-01T03:46:16.660Z,5.50
2017-03-01T03:46:38.376Z,5.51
2017-03-01T03:47:00.274Z,5.51
2017-03-01T03:47:22.020Z,5.49
2017-03-01T03:47:43.747Z,5.51
2017-03-01T03:48:10.443Z,5.53
2017-03-01T03:48:32.277Z,5.52
2017-03-01T03:49:03.543Z,5.51
2017-03-01T03:49:25.300Z,5.49
2017-03-01T03:50:01.334Z,5.49
2017-03-01T03:50:28.422Z,5.54
2017-03-01T03:50:50.307Z,5.55
2017-03-01T03:52:04.404Z,5.53
2017-03-01T03:52:26.112Z,5.53
2017-03-01T03:52:47.839Z,5.55
2017-03-01T03:53:14.330Z,5.53
2017-03-01T03:53:36.035Z,5.53
2017-03-01T03:53:57.755Z,5.53
2017-03-01T03:54:29.097Z,5.53
2017-03-01T03:55:22.110Z,5.60
2017-03-01T03:55:46.464Z,5.57
2017-03-01T03:56:12.968Z,5.56
2017-03-01T03:56:34.661Z,5.58
2017-03-01T03:57:01.181Z,5.55
2017-03-01T03:57:22.921Z,5.59
2017-03-01T03:57:44.650Z,5.62
2017-03-01T03:58:11.240Z,5.61
2017-03-01T03:58:33.221Z,5.61
2017-03-01T03:58:57.815Z,5.61
2017-03-01T03:59:19.535Z,5.59
2017-03-01T03:59:46.122Z,5.60
2017-03-01T04:00:07.882Z,5.59
2017-03-01T04:00:29.642Z,5.56
2017-03-01T04:01:05.661Z,5.57
2017-03-01T04:01:32.703Z,5.54
2017-03-01T04:01:57.172Z,5.54
2017-03-01T04:02:33.203Z,5.56
2017-03-01T04:03:00.317Z,5.57
2017-03-01T04:03:22.161Z,5.57
2017-03-01T04:03:58.198Z,5.63
2017-03-01T04:05:45.773Z,5.61
2017-03-01T04:06:10.115Z,5.61
2017-03-01T04:06:31.987Z,5.61
2017-03-01T04:06:56.803Z,5.65
2017-03-01T04:07:56.074Z,5.65
2017-03-01T04:08:29.989Z,5.66
2017-03-01T04:08:59.366Z,5.62
2017-03-01T04:09:47.661Z,5.62
2017-03-01T04:10:58.179Z,5.64
2017-03-01T04:11:27.167Z,5.62
2017-03-01T04:11:53.925Z,5.63
2017-03-01T04:14:32.380Z,5.67
2017-03-01T04:15:33.475Z,5.68
2017-03-01T04:16:07.207Z,5.71
2017-03-01T04:16:33.813Z,5.71
2017-03-01T04:17:01.141Z,5.71
2017-03-01T04:17:57.093Z,5.66
2017-03-01T04:18:59.674Z,5.69
2017-03-01T04:19:30.280Z,5.69
2017-03-01T04:19:56.794Z,5.70
2017-03-01T04:20:18.562Z,5.67
2017-03-01T04:20:40.423Z,5.69
2017-03-01T04:21:43.649Z,5.72
2017-03-01T04:23:11.597Z,5.72
2017-03-01T04:23:45.756Z,5.70
2017-03-01T04:24:13.200Z,5.73
2017-03-01T04:25:07.922Z,5.76
2017-03-01T04:25:34.461Z,5.77
2017-03-01T04:26:00.990Z,5.75
2017-03-01T04:26:23.286Z,5.73
2017-03-01T04:26:49.876Z,5.74
2017-03-01T04:27:45.458Z,5.73
2017-03-01T04:28:10.069Z,5.69
2017-03-01T04:28:39.532Z,5.71
2017-03-01T04:29:10.653Z,5.70
2017-03-01T04:29:38.023Z,5.71
2017-03-01T04:30:07.393Z,5.72
2017-03-01T04:31:05.809Z,5.72
2017-03-01T04:32:33.571Z,5.74
2017-03-01T04:32:55.387Z,5.74
2017-03-01T04:33:43.757Z,5.75
2017-03-01T04:34:13.157Z,5.74
2017-03-01T04:36:12.827Z,5.77
2017-03-01T04:36:37.946Z,5.79
2017-03-01T04:37:08.800Z,5.79
2017-03-01T04:37:30.523Z,5.77
2017-03-01T04:37:57.762Z,5.76
2017-03-01T04:38:25.109Z,5.77
2017-03-01T04:38:54.486Z,5.79
2017-03-01T04:39:18.823Z,5.79
2017-03-01T04:39:43.105Z,5.79
2017-03-01T04:40:31.350Z,5.78
2017-03-01T04:40:53.126Z,5.77
2017-03-01T04:41:51.953Z,5.77
2017-03-01T04:42:18.597Z,5.79
2017-03-01T04:43:49.595Z,5.80
2017-03-01T04:44:43.008Z,5.77
2017-03-01T04:45:04.780Z,5.78
2017-03-01T04:45:29.685Z,5.79
2017-03-01T04:45:54.291Z,5.79
2017-03-01T04:46:54.983Z,5.82
2017-03-01T04:47:24.396Z,5.85
2017-03-01T04:47:48.988Z,5.82
2017-03-01T04:48:42.060Z,5.83
2017-03-01T04:50:13.122Z,5.83
2017-03-01T04:50:34.940Z,5.81
2017-03-01T04:51:01.652Z,5.80
2017-03-01T04:52:07.365Z,5.80
2017-03-01T04:52:41.425Z,5.82
2017-03-01T04:53:10.927Z,5.81
2017-03-01T04:53:37.444Z,5.83
2017-03-01T04:54:26.696Z,5.85
2017-03-01T04:54:48.451Z,5.87
2017-03-01T04:55:10.182Z,5.87
2017-03-01T04:55:31.908Z,5.86
2017-03-01T04:56:46.428Z,5.88
2017-03-01T04:57:10.979Z,5.87
2017-03-01T04:58:14.941Z,5.91
2017-03-01T04:58:44.393Z,5.90
2017-03-01T05:00:17.615Z,5.88
2017-03-01T05:00:39.532Z,5.89
2017-03-01T05:01:11.647Z,5.90
2017-03-01T05:01:43.067Z,5.90
2017-03-01T05:02:09.836Z,5.91
2017-03-01T05:03:11.769Z,5.89
2017-03-01T05:04:54.035Z,5.90
2017-03-01T05:05:45.210Z,5.92
2017-03-01T05:06:54.428Z,5.88
2017-03-01T05:07:24.182Z,5.89
2017-03-01T05:08:00.227Z,5.88
2017-03-01T05:09:10.134Z,5.83
2017-03-01T05:10:11.205Z,5.83
2017-03-01T05:10:35.743Z,5.85
2017-03-01T05:11:39.358Z,5.82
2017-03-01T05:12:41.912Z,5.84
2017-03-01T05:13:45.026Z,5.80
2017-03-01T05:14:47.565Z,5.81
2017-03-01T05:15:46.403Z,5.81
2017-03-01T05:16:08.124Z,5.81
2017-03-01T05:16:30.198Z,5.81
2017-03-01T05:16:51.903Z,5.80
2017-03-01T05:17:13.812Z,5.83
2017-03-01T05:17:35.948Z,5.84
2017-03-01T05:18:02.641Z,5.85
2017-03-01T05:18:24.600Z,5.84
2017-03-01T05:18:49.314Z,5.83
2017-03-01T05:19:11.077Z,5.81
2017-03-01T05:19:33.106Z,5.81
2017-03-01T05:19:54.878Z,5.78
2017-03-01T05:20:16.625Z,5.80
2017-03-01T05:20:43.146Z,5.79
2017-03-01T05:21:11.912Z,5.82
2017-03-01T05:21:43.253Z,5.80
2017-03-01T05:22:05.126Z,5.80
2017-03-01T05:22:26.972Z,5.81
2017-03-01T05:22:53.524Z,5.80
2017-03-01T05:23:15.393Z,5.83
2017-03-01T05:23:37.222Z,5.84
2017-03-01T05:24:08.496Z,5.84
2017-03-01T05:24:30.245Z,5.84
2017-03-01T05:25:42.370Z,5.83
2017-03-01T05:26:13.697Z,5.83
2017-03-01T05:26:49.866Z,5.84
2017-03-01T05:27:26.522Z,5.85
2017-03-01T05:27:53.705Z,5.83
2017-03-01T05:28:15.515Z,5.86
2017-03-01T05:28:46.864Z,5.84
2017-03-01T05:29:11.485Z,5.82
2017-03-01T05:29:42.739Z,5.85
2017-03-01T05:30:04.588Z,5.84
2017-03-01T05:30:35.862Z,5.85
2017-03-01T05:30:57.705Z,5.83
2017-03-01T05:31:28.962Z,5.84
2017-03-01T05:31:50.770Z,5.83
2017-03-01T05:32:17.393Z,5.84
2017-03-01T05:32:39.155Z,5.85
2017-03-01T05:33:15.174Z,5.86
2017-03-01T05:33:42.188Z,5.88
2017-03-01T05:34:03.914Z,5.85
2017-03-01T05:34:25.728Z,5.84
2017-03-01T05:34:52.237Z,5.84
2017-03-01T05:35:14.060Z,5.83
2017-03-01T05:35:45.311Z,5.83
2017-03-01T05:36:07.118Z,5.83
2017-03-01T05:36:28.885Z,5.83
2017-03-01T05:36:55.458Z,5.84
2017-03-01T05:37:17.305Z,5.82
2017-03-01T05:37:44.029Z,5.82
2017-03-01T05:38:05.829Z,5.84
2017-03-01T05:38:32.351Z,5.81
2017-03-01T05:38:54.062Z,5.80
2017-03-01T05:39:15.788Z,5.82
2017-03-01T05:39:42.303Z,5.85
2017-03-01T05:40:03.998Z,5.85
2017-03-01T05:40:25.747Z,5.86
2017-03-01T05:40:47.481Z,5.86
2017-03-01T05:41:09.183Z,5.83
2017-03-01T05:41:35.667Z,5.85
2017-03-01T05:42:00.204Z,5.84
2017-03-01T05:42:21.952Z,5.85
2017-03-01T05:42:57.988Z,5.82
2017-03-01T05:43:25.066Z,5.83
2017-03-01T05:43:46.775Z,5.86
2017-03-01T05:44:22.806Z,5.87
2017-03-01T05:44:49.857Z,5.83
2017-03-01T05:45:14.508Z,5.84
2017-03-01T05:45:41.040Z,5.81
2017-03-01T05:46:02.764Z,5.80
2017-03-01T05:47:05.279Z,5.84
2017-03-01T05:47:31.809Z,5.82
2017-03-01T05:47:53.652Z,5.83
2017-03-01T05:48:24.931Z,5.83
2017-03-01T05:48:46.661Z,5.82
2017-03-01T05:49:08.593Z,5.80
2017-03-01T05:49:35.073Z,5.79
2017-03-01T05:49:56.886Z,5.77
2017-03-01T05:50:23.360Z,5.78
2017-03-01T05:50:45.123Z,5.78
2017-03-01T05:51:11.663Z,5.78
2017-03-01T05:51:33.364Z,5.76
2017-03-01T05:51:59.900Z,5.77
2017-03-01T05:52:24.564Z,5.75
2017-03-01T05:52:51.083Z,5.77
2017-03-01T05:53:12.871Z,5.78
2017-03-01T05:53:39.366Z,5.76
2017-03-01T05:54:01.094Z,5.75
2017-03-01T05:54:27.604Z,5.75
2017-03-01T05:54:49.359Z,5.77
2017-03-01T05:55:16.012Z,5.79
2017-03-01T05:55:45.390Z,5.79
2017-03-01T05:56:11.923Z,5.79
2017-03-01T05:56:33.753Z,5.73
2017-03-01T05:57:41.017Z,5.63
2017-03-01T05:58:02.761Z,5.62
2017-03-01T05:58:38.927Z,5.64
2017-03-01T05:59:05.918Z,5.60
2017-03-01T05:59:27.650Z,5.60
2017-03-01T06:00:03.696Z,5.60
2017-03-01T06:00:30.771Z,5.61
2017-03-01T06:00:52.524Z,5.60
2017-03-01T06:01:28.556Z,5.62
2017-03-01T06:01:55.597Z,5.62
2017-03-01T06:02:17.290Z,5.61
2017-03-01T06:03:24.614Z,5.60
2017-03-01T06:03:46.326Z,5.61
2017-03-01T06:04:12.833Z,5.61
2017-03-01T06:04:37.510Z,5.63
2017-03-01T06:05:04.009Z,5.64
2017-03-01T06:05:25.731Z,5.66
2017-03-01T06:05:52.256Z,5.69
2017-03-01T06:06:14.022Z,5.67
2017-03-01T06:06:40.532Z,5.70
2017-03-01T06:07:02.291Z,5.66
2017-03-01T06:07:24.105Z,5.65
2017-03-01T06:08:00.134Z,5.69
2017-03-01T06:08:22.470Z,5.71
2017-03-01T06:08:44.215Z,5.70
2017-03-01T06:09:20.275Z,5.70
2017-03-01T06:09:47.302Z,5.69
2017-03-01T06:10:09.027Z,5.71
2017-03-01T06:10:45.062Z,5.65
2017-03-01T06:11:12.363Z,5.68
2017-03-01T06:11:38.863Z,5.72
2017-03-01T06:12:14.889Z,5.73
2017-03-01T06:12:41.916Z,5.75
2017-03-01T06:13:03.758Z,5.77
2017-03-01T06:14:11.065Z,5.74
2017-03-01T06:14:35.388Z,5.72
2017-03-01T06:15:11.437Z,5.72
2017-03-01T06:15:38.441Z,5.70
2017-03-01T06:16:00.217Z,5.68
2017-03-01T06:17:12.268Z,5.74
2017-03-01T06:17:34.007Z,5.73
2017-03-01T06:18:46.098Z,5.73
2017-03-01T06:19:07.869Z,5.75
2017-03-01T06:20:15.267Z,5.72
2017-03-01T06:20:37.071Z,5.71
2017-03-01T06:21:08.337Z,5.73
2017-03-01T06:21:32.723Z,5.76
2017-03-01T06:22:40.049Z,5.74
2017-03-01T06:23:02.867Z,5.76
2017-03-01T06:23:29.499Z,5.75
2017-03-01T06:23:51.232Z,5.76
2017-03-01T06:24:58.507Z,5.73
2017-03-01T06:25:20.254Z,5.74
2017-03-01T06:25:46.739Z,5.77
2017-03-01T06:26:08.457Z,5.77
2017-03-01T06:26:39.706Z,5.76
2017-03-01T06:27:01.478Z,5.74
2017-03-01T06:27:28.083Z,5.76
2017-03-01T06:27:50.836Z,5.75
2017-03-01T06:28:12.675Z,5.75
2017-03-01T06:28:34.455Z,5.74
2017-03-01T06:28:56.268Z,5.75
2017-03-01T06:29:22.844Z,5.76
2017-03-01T06:29:44.556Z,5.77
2017-03-01T06:30:11.024Z,5.76
2017-03-01T06:30:32.733Z,5.79
2017-03-01T06:30:54.522Z,5.79
2017-03-01T06:31:30.600Z,5.79
2017-03-01T06:31:57.578Z,5.84
2017-03-01T06:32:19.388Z,5.84
2017-03-01T06:32:41.095Z,5.84
2017-03-01T06:33:02.793Z,5.80
2017-03-01T06:33:24.489Z,5.80
2017-03-01T06:33:46.288Z,5.79
2017-03-01T06:34:08.027Z,5.79
2017-03-01T06:34:29.724Z,5.80
2017-03-01T06:34:51.424Z,5.84
2017-03-01T06:35:22.777Z,5.85
2017-03-01T06:35:44.472Z,5.86
2017-03-01T06:36:15.766Z,5.85
2017-03-01T06:36:37.605Z,5.85
2017-03-01T06:36:59.315Z,5.84
2017-03-01T06:37:30.563Z,5.84
2017-03-01T06:37:52.342Z,5.83
2017-03-01T06:38:14.036Z,5.85
2017-03-01T06:38:45.296Z,5.86
2017-03-01T06:39:07.078Z,5.87
2017-03-01T06:39:28.772Z,5.87
2017-03-01T06:39:55.261Z,5.89
2017-03-01T06:40:16.952Z,5.89
2017-03-01T06:40:38.743Z,5.89
2017-03-01T06:41:00.453Z,5.89
2017-03-01T06:41:22.157Z,5.89
2017-03-01T06:41:48.726Z,5.91
2017-03-01T06:42:11.428Z,5.93
2017-03-01T06:42:33.136Z,5.95
2017-03-01T06:42:54.836Z,5.95
2017-03-01T06:43:16.640Z,5.96
2017-03-01T06:43:38.335Z,5.96
2017-03-01T06:44:04.823Z,5.97
2017-03-01T06:44:26.533Z,5.98
2017-03-01T06:44:48.324Z,5.99
2017-03-01T06:45:19.583Z,6.00
2017-03-01T06:45:41.273Z,6.02
2017-03-01T06:46:02.968Z,6.03
2017-03-01T06:46:24.668Z,6.05
2017-03-01T06:46:46.391Z,6.04
2017-03-01T06:47:08.109Z,6.06
2017-03-01T06:47:29.923Z,6.04
2017-03-01T06:47:51.631Z,6.06
2017-03-01T06:48:13.328Z,6.09
2017-03-01T06:48:39.891Z,6.09
2017-03-01T06:49:01.588Z,6.09
2017-03-01T06:49:23.293Z,6.08
2017-03-01T06:49:49.776Z,6.10
2017-03-01T06:50:11.473Z,6.08
2017-03-01T06:50:33.178Z,6.09